createdAt,value
2019-02-06T00:00:46.359Z,20.67
2019-02-06T00:05:49.534Z,19.47
2019-02-06T00:10:51.101Z,18.87
2019-02-06T00:15:52.700Z,20.40
2019-02-06T00:20:54.219Z,20.63
2019-02-06T00:25:56.126Z,18.47
2019-02-06T00:30:58.037Z,21.00
2019-02-06T00:35:59.645Z,19.10
2019-02-06T00:41:01.400Z,22.87
2019-02-06T00:46:03.200Z,19.17
2019-02-06T00:51:04.896Z,21.43
2019-02-06T00:56:06.516Z,17.90
2019-02-06T01:01:08.076Z,18.53
2019-02-06T01:06:09.620Z,19.00
2019-02-06T01:11:11.180Z,18.00
2019-02-06T01:16:12.939Z,21.77
2019-02-06T01:21:14.999Z,20.13
2019-02-06T01:26:16.890Z,19.23
2019-02-06T01:31:18.512Z,16.87
2019-02-06T01:36:20.013Z,17.90
2019-02-06T01:41:21.578Z,17.77
2019-02-06T01:46:23.160Z,23.77
2019-02-06T01:51:24.826Z,17.60
2019-02-06T01:56:26.836Z,19.10
2019-02-06T02:01:28.405Z,22.33
2019-02-06T02:06:30.084Z,21.03
2019-02-06T02:11:31.718Z,20.37
2019-02-06T02:16:33.283Z,18.60
2019-02-06T02:21:35.252Z,17.70
2019-02-06T02:26:37.332Z,19.70
2019-02-06T02:31:38.845Z,20.30
2019-02-06T02:36:40.433Z,20.03
2019-02-06T02:41:42.032Z,17.97
2019-02-06T02:46:43.606Z,19.40
2019-02-06T02:51:45.227Z,20.93
2019-02-06T02:56:46.900Z,17.67
2019-02-06T03:01:49.175Z,19.37
2019-02-06T03:06:51.118Z,18.77
2019-02-06T03:11:52.712Z,20.30
2019-02-06T03:16:54.260Z,19.67
2019-02-06T03:21:55.798Z,20.40
2019-02-06T03:26:57.434Z,22.10
2019-02-06T03:31:59.135Z,20.23
2019-02-06T03:37:00.657Z,20.93
2019-02-06T03:42:02.547Z,22.30
2019-02-06T03:47:04.172Z,21.23
2019-02-06T03:52:05.743Z,24.13
2019-02-06T03:57:07.595Z,21.60
2019-02-06T04:02:09.214Z,21.10
2019-02-06T04:07:11.043Z,20.57
2019-02-06T04:12:12.981Z,20.23
2019-02-06T04:17:14.856Z,19.17
2019-02-06T04:22:16.448Z,21.20
2019-02-06T04:27:18.025Z,21.33
2019-02-06T04:32:19.557Z,22.43
2019-02-06T04:37:21.426Z,20.77
2019-02-06T04:42:22.990Z,23.57
2019-02-06T04:47:24.581Z,18.90
2019-02-06T04:52:26.512Z,22.30
2019-02-06T04:57:28.075Z,26.70
2019-02-06T05:02:29.691Z,20.33
2019-02-06T05:07:32.260Z,23.17
2019-02-06T05:12:33.885Z,24.37
2019-02-06T05:17:35.895Z,21.70
2019-02-06T05:22:38.015Z,23.30
2019-02-06T05:27:39.978Z,27.10
2019-02-06T05:32:42.956Z,24.90
2019-02-06T05:37:45.710Z,23.73
2019-02-06T05:42:47.975Z,24.73
2019-02-06T05:47:49.516Z,26.17
2019-02-06T05:52:51.161Z,22.93
2019-02-06T05:57:53.299Z,26.17
2019-02-06T06:02:55.489Z,23.13
2019-02-06T06:07:57.026Z,26.33
2019-02-06T06:12:58.907Z,26.07
2019-02-06T06:18:00.578Z,26.00
2019-02-06T06:23:02.145Z,27.60
2019-02-06T06:28:04.431Z,29.57
2019-02-06T06:33:06.484Z,25.03
2019-02-06T06:38:08.033Z,29.57
2019-02-06T06:43:09.729Z,27.50
2019-02-06T06:48:11.289Z,28.17
2019-02-06T06:53:13.131Z,31.13
2019-02-06T06:58:14.715Z,33.30
2019-02-06T07:03:16.602Z,35.43
2019-02-06T07:08:22.848Z,32.47
2019-02-06T07:13:24.427Z,33.17
2019-02-06T07:18:26.090Z,33.43
2019-02-06T07:23:27.670Z,34.93
2019-02-06T07:28:29.310Z,36.70
2019-02-06T07:33:30.883Z,36.87
2019-02-06T07:38:32.438Z,40.23
2019-02-06T07:43:34.152Z,40.50
2019-02-06T07:48:36.057Z,39.03
2019-02-06T07:53:37.992Z,44.57
2019-02-06T07:58:40.025Z,41.40
2019-02-06T08:03:43.168Z,46.70
2019-02-06T08:08:44.692Z,44.17
2019-02-06T08:13:46.237Z,41.57
2019-02-06T08:18:47.840Z,46.67
2019-02-06T08:23:49.377Z,43.37
2019-02-06T08:28:51.052Z,48.30
2019-02-06T08:33:52.615Z,46.80
2019-02-06T08:38:55.672Z,48.77
2019-02-06T08:43:57.498Z,50.13
2019-02-06T08:48:59.087Z,52.60
2019-02-06T08:54:00.826Z,49.43
2019-02-06T08:59:02.978Z,47.97
2019-02-06T09:04:04.522Z,55.17
2019-02-06T09:09:08.766Z,45.33
2019-02-06T09:14:10.339Z,56.03
2019-02-06T09:19:11.933Z,48.33
2019-02-06T09:24:13.595Z,55.27
2019-02-06T09:29:15.130Z,54.07
2019-02-06T09:34:16.894Z,47.20
2019-02-06T09:39:18.421Z,50.80
2019-02-06T09:44:20.066Z,51.40
2019-02-06T09:49:21.593Z,50.83
2019-02-06T09:54:23.310Z,51.47
2019-02-06T09:59:24.890Z,50.43
2019-02-06T10:04:26.921Z,49.50
2019-02-06T10:09:28.554Z,54.73
2019-02-06T10:14:30.126Z,56.03
2019-02-06T10:19:31.681Z,54.10
2019-02-06T10:24:33.324Z,48.60
2019-02-06T10:29:35.392Z,53.07
2019-02-06T10:34:36.933Z,54.13
2019-02-06T10:39:38.531Z,50.00
2019-02-06T10:44:40.064Z,50.10
2019-02-06T10:49:41.758Z,50.07
2019-02-06T10:54:43.398Z,49.13
2019-02-06T10:59:45.250Z,51.53
2019-02-06T11:04:46.929Z,54.77
2019-02-06T11:09:49.162Z,47.70
2019-02-06T11:14:50.883Z,52.53
2019-02-06T11:19:52.513Z,49.33
2019-02-06T11:24:54.049Z,48.63
2019-02-06T11:29:55.621Z,53.27
2019-02-06T11:34:57.216Z,51.50
2019-02-06T11:39:59.465Z,51.70
2019-02-06T11:45:01.004Z,46.93
2019-02-06T11:50:03.889Z,49.17
2019-02-06T11:55:08.921Z,50.23
2019-02-06T12:00:13.196Z,51.20
2019-02-06T12:05:15.447Z,51.43
2019-02-06T12:10:17.310Z,44.17
2019-02-06T12:15:20.006Z,51.53
2019-02-06T12:20:21.599Z,52.80
2019-02-06T12:25:23.201Z,47.97
2019-02-06T12:30:26.966Z,44.40
2019-02-06T12:35:29.239Z,43.77
2019-02-06T12:40:30.751Z,43.00
2019-02-06T12:45:32.444Z,48.57
2019-02-06T12:50:33.937Z,45.17
2019-02-06T12:55:36.399Z,42.73
2019-02-06T13:00:40.188Z,43.30
2019-02-06T13:05:41.774Z,42.07
2019-02-06T13:10:43.426Z,45.67
2019-02-06T13:15:47.203Z,34.00
2019-02-06T13:20:51.214Z,36.07
2019-02-06T13:25:52.068Z,34.27
2019-02-06T13:30:53.755Z,37.70
2019-02-06T13:35:55.408Z,41.03
2019-02-06T13:40:57.102Z,33.33
2019-02-06T13:45:59.185Z,38.40
2019-02-06T13:51:00.785Z,31.47
2019-02-06T13:56:02.894Z,33.90
2019-02-06T14:01:04.502Z,35.03
2019-02-06T14:06:06.092Z,40.67
2019-02-06T14:11:08.259Z,37.47
2019-02-06T14:16:10.566Z,40.47
2019-02-06T14:21:12.425Z,38.07
2019-02-06T14:26:40.983Z,40.70
2019-02-06T14:32:44.080Z,39.53
2019-02-06T14:38:10.507Z,40.43
2019-02-06T14:44:00.230Z,39.17
2019-02-06T14:50:08.137Z,48.47
2019-02-06T14:55:40.248Z,48.80
2019-02-06T15:01:08.371Z,44.27
2019-02-06T15:06:39.735Z,49.27
2019-02-06T15:12:04.021Z,43.83
2019-02-06T15:17:44.129Z,52.00
2019-02-06T15:23:36.411Z,48.17
2019-02-06T15:29:21.807Z,46.90
2019-02-06T15:34:56.051Z,49.53
2019-02-06T15:40:51.717Z,34.50
2019-02-06T15:46:28.114Z,38.77
2019-02-06T15:52:09.861Z,38.47
2019-02-06T15:57:46.634Z,46.07
2019-02-06T16:03:24.660Z,42.33
2019-02-06T16:08:45.545Z,38.80
2019-02-06T16:14:24.496Z,39.17
2019-02-06T16:20:26.618Z,37.83
2019-02-06T16:26:14.868Z,36.33
2019-02-06T16:31:52.604Z,42.90
2019-02-06T16:37:33.775Z,39.30
2019-02-06T16:43:03.950Z,49.57
2019-02-06T16:48:32.049Z,47.13
2019-02-06T16:54:16.546Z,58.90
2019-02-06T16:59:57.831Z,61.90
2019-02-06T17:05:31.141Z,64.70
2019-02-06T17:11:08.256Z,62.00
2019-02-06T17:16:56.365Z,58.03
2019-02-06T17:22:42.396Z,59.47
2019-02-06T17:28:19.676Z,61.73
2019-02-06T17:33:59.658Z,56.60
2019-02-06T17:39:38.991Z,56.93
2019-02-06T17:45:10.200Z,66.73
2019-02-06T17:50:58.611Z,65.47
2019-02-06T17:56:00.503Z,59.57
2019-02-06T18:01:12.566Z,59.80
2019-02-06T18:06:14.935Z,72.10
2019-02-06T18:11:17.587Z,69.13
2019-02-06T18:16:21.590Z,70.77
2019-02-06T18:21:23.879Z,73.53
2019-02-06T18:26:25.582Z,78.03
2019-02-06T18:31:27.209Z,61.43
2019-02-06T18:36:28.777Z,73.77
2019-02-06T18:41:30.320Z,81.40
2019-02-06T18:46:32.120Z,64.37
2019-02-06T18:51:33.678Z,66.63
2019-02-06T18:56:35.331Z,52.37
2019-02-06T19:01:37.359Z,53.00
2019-02-06T19:06:39.327Z,72.50
2019-02-06T19:11:41.081Z,71.13
2019-02-06T19:16:43.348Z,71.77
2019-02-06T19:21:44.965Z,74.50
2019-02-06T19:26:46.838Z,84.63
2019-02-06T19:31:48.445Z,64.87
2019-02-06T19:36:50.300Z,71.47
2019-02-06T19:41:51.927Z,84.00
2019-02-06T19:46:53.583Z,63.60
2019-02-06T19:51:55.266Z,49.27
2019-02-06T19:56:57.365Z,73.57
2019-02-06T20:01:59.053Z,60.10
2019-02-06T20:07:00.953Z,66.80
2019-02-06T20:12:02.529Z,65.63
2019-02-06T20:17:04.146Z,70.60
2019-02-06T20:22:06.079Z,71.93
2019-02-06T20:27:07.906Z,67.23
2019-02-06T20:32:09.472Z,65.47
2019-02-06T20:37:11.161Z,62.40
2019-02-06T20:42:12.768Z,68.07
2019-02-06T20:47:14.399Z,72.73
2019-02-06T20:52:16.340Z,86.17
2019-02-06T20:57:17.962Z,94.80
2019-02-06T21:02:19.495Z,87.23
2019-02-06T21:07:21.104Z,102.80
2019-02-06T21:12:22.758Z,94.70
2019-02-06T21:17:24.350Z,89.43
2019-02-06T21:22:25.920Z,106.77
2019-02-06T21:27:27.546Z,95.93
2019-02-06T21:32:29.482Z,97.23
2019-02-06T21:37:31.290Z,102.30
2019-02-06T21:42:35.650Z,85.87
2019-02-06T21:47:36.808Z,106.97
2019-02-06T21:52:38.322Z,102.90
2019-02-06T21:57:39.872Z,109.70
2019-02-06T22:02:41.448Z,106.33
2019-02-06T22:07:43.128Z,106.50
2019-02-06T22:12:44.884Z,105.60
2019-02-06T22:17:46.402Z,102.17
2019-02-06T22:22:48.358Z,94.70
2019-02-06T22:27:52.342Z,97.50
2019-02-06T22:32:53.962Z,90.30
2019-02-06T22:37:56.108Z,75.87
2019-02-06T22:42:57.659Z,77.50
2019-02-06T22:47:59.271Z,76.40
2019-02-06T22:53:00.768Z,65.43
2019-02-06T22:58:02.320Z,55.77
2019-02-06T23:03:03.957Z,49.10
2019-02-06T23:08:05.701Z,58.90
2019-02-06T23:13:07.661Z,51.33
2019-02-06T23:18:09.527Z,51.47
2019-02-06T23:23:11.107Z,47.47
2019-02-06T23:28:12.772Z,49.53
2019-02-06T23:33:14.491Z,42.37
2019-02-06T23:38:16.023Z,52.27
2019-02-06T23:43:18.339Z,46.93
2019-02-06T23:48:20.276Z,49.43
2019-02-06T23:53:21.791Z,39.23
2019-02-06T23:58:23.425Z,38.57
